createdAt,value
2022-09-06T00:01:29.069Z,44.31
2022-09-06T00:03:56.008Z,44.48
2022-09-06T00:06:22.942Z,45.09
2022-09-06T00:08:49.877Z,44.96
2022-09-06T00:11:17.726Z,45.38
2022-09-06T00:13:45.442Z,45.49
2022-09-06T00:16:19.597Z,45.67
2022-09-06T00:18:46.970Z,45.51
2022-09-06T00:21:23.482Z,46.22
2022-09-06T00:23:51.277Z,46.03
2022-09-06T00:26:18.617Z,46.82
2022-09-06T00:28:45.770Z,46.22
2022-09-06T00:31:20.662Z,46.85
2022-09-06T00:33:47.946Z,46.83
2022-09-06T00:36:15.282Z,47.01
2022-09-06T00:38:42.933Z,47.02
2022-09-06T00:41:12.183Z,46.96
2022-09-06T00:43:39.157Z,47.33
2022-09-06T00:46:07.980Z,47.52
2022-09-06T00:48:35.435Z,47.98
2022-09-06T00:51:05.299Z,47.59
2022-09-06T00:53:32.429Z,48.20
2022-09-06T00:55:59.675Z,47.50
2022-09-06T00:58:26.917Z,48.13
2022-09-06T01:00:53.870Z,47.72
2022-09-06T01:03:23.026Z,48.06
2022-09-06T01:06:20.097Z,48.57
2022-09-06T01:09:08.368Z,48.49
2022-09-06T01:12:00.007Z,48.90
2022-09-06T01:14:54.509Z,48.94
2022-09-06T01:17:51.314Z,49.15
2022-09-06T01:20:36.395Z,49.39
2022-09-06T01:23:38.410Z,49.32
2022-09-06T01:26:29.738Z,49.20
2022-09-06T01:28:57.126Z,48.91
2022-09-06T01:31:24.553Z,48.83
2022-09-06T01:34:03.657Z,49.41
2022-09-06T01:37:06.217Z,49.37
2022-09-06T01:39:34.042Z,49.72
2022-09-06T01:42:07.158Z,49.69
2022-09-06T01:44:35.787Z,50.75
2022-09-06T01:47:17.420Z,50.49
2022-09-06T01:50:02.924Z,50.19
2022-09-06T01:52:48.383Z,49.96
2022-09-06T01:55:44.873Z,49.62
2022-09-06T01:58:20.746Z,51.13
2022-09-06T02:01:41.397Z,49.56
2022-09-06T02:04:21.768Z,49.00
2022-09-06T02:06:57.628Z,49.18
2022-09-06T02:09:26.791Z,48.92
2022-09-06T02:11:59.759Z,49.00
2022-09-06T02:14:39.752Z,49.23
2022-09-06T02:17:11.569Z,50.08
2022-09-06T02:19:49.843Z,52.19
2022-09-06T02:22:20.826Z,53.28
2022-09-06T02:24:51.053Z,53.47
2022-09-06T02:27:18.107Z,54.62
2022-09-06T02:29:45.243Z,55.27
2022-09-06T02:32:20.304Z,57.24
2022-09-06T02:34:48.311Z,54.51
2022-09-06T02:37:16.524Z,54.78
2022-09-06T02:39:44.100Z,55.93
2022-09-06T02:42:12.774Z,56.31
2022-09-06T02:44:40.312Z,56.80
2022-09-06T02:47:07.229Z,58.00
2022-09-06T02:49:34.543Z,59.51
2022-09-06T02:52:01.479Z,59.24
2022-09-06T02:54:28.479Z,57.97
2022-09-06T02:56:55.432Z,59.34
2022-09-06T02:59:22.337Z,57.64
2022-09-06T03:01:49.226Z,57.61
2022-09-06T03:04:16.131Z,58.23
2022-09-06T03:06:43.012Z,58.39
2022-09-06T03:09:10.419Z,57.80
2022-09-06T03:11:38.028Z,59.18
2022-09-06T03:14:04.995Z,57.17
2022-09-06T03:16:31.942Z,57.16
2022-09-06T03:18:58.873Z,56.54
2022-09-06T03:21:25.771Z,57.03
2022-09-06T03:23:52.726Z,56.71
2022-09-06T03:26:19.621Z,57.41
2022-09-06T03:28:46.575Z,57.11
2022-09-06T03:31:13.564Z,59.53
2022-09-06T03:33:40.827Z,58.63
2022-09-06T03:36:08.188Z,60.01
2022-09-06T03:38:35.113Z,60.14
2022-09-06T03:41:02.032Z,60.24
2022-09-06T03:43:29.249Z,59.93
2022-09-06T03:45:57.506Z,60.59
2022-09-06T03:48:26.858Z,60.77
2022-09-06T03:50:55.758Z,61.31
2022-09-06T03:53:23.745Z,59.81
2022-09-06T03:55:52.567Z,61.51
2022-09-06T03:58:21.104Z,62.59
2022-09-06T04:00:49.254Z,61.99
2022-09-06T04:03:19.317Z,62.65
2022-09-06T04:05:46.497Z,62.85
2022-09-06T04:08:13.690Z,61.85
2022-09-06T04:10:40.992Z,62.23
2022-09-06T04:13:08.003Z,62.45
2022-09-06T04:15:34.901Z,62.48
2022-09-06T04:18:04.921Z,62.57
2022-09-06T04:20:34.142Z,63.02
2022-09-06T04:23:01.035Z,62.61
2022-09-06T04:25:27.925Z,62.07
2022-09-06T04:27:54.796Z,62.35
2022-09-06T04:30:21.678Z,61.80
2022-09-06T04:32:48.597Z,62.59
2022-09-06T04:35:15.645Z,62.19
2022-09-06T04:37:42.584Z,62.53
2022-09-06T04:40:09.817Z,61.73
2022-09-06T04:42:36.747Z,61.54
2022-09-06T04:45:03.826Z,61.17
2022-09-06T04:47:30.885Z,60.26
2022-09-06T04:49:57.778Z,60.00
2022-09-06T04:52:29.493Z,61.25
2022-09-06T04:54:57.130Z,61.62
2022-09-06T04:57:24.057Z,60.22
2022-09-06T04:59:50.970Z,61.66
2022-09-06T05:02:17.944Z,63.41
2022-09-06T05:04:44.897Z,65.13
2022-09-06T05:07:11.797Z,64.11
2022-09-06T05:09:38.734Z,63.09
2022-09-06T05:12:05.863Z,61.63
2022-09-06T05:14:32.781Z,60.95
2022-09-06T05:16:59.796Z,62.73
2022-09-06T05:19:26.794Z,61.73
2022-09-06T05:21:53.691Z,61.42
2022-09-06T05:24:20.592Z,60.91
2022-09-06T05:26:47.604Z,61.76
2022-09-06T05:29:14.548Z,61.49
2022-09-06T05:31:41.597Z,61.36
2022-09-06T05:34:08.669Z,61.18
2022-09-06T05:36:35.586Z,62.24
2022-09-06T05:39:02.537Z,63.17
2022-09-06T05:41:29.423Z,63.16
2022-09-06T05:43:56.341Z,63.51
2022-09-06T05:46:23.386Z,63.46
2022-09-06T05:49:04.618Z,63.07
2022-09-06T05:51:32.714Z,63.38
2022-09-06T05:53:59.785Z,63.64
2022-09-06T05:56:26.673Z,63.79
2022-09-06T05:58:53.576Z,65.08
2022-09-06T06:01:22.734Z,65.50
2022-09-06T06:03:55.151Z,65.77
2022-09-06T06:06:22.732Z,66.32
2022-09-06T06:08:50.071Z,65.87
2022-09-06T06:11:17.071Z,66.17
2022-09-06T06:13:44.071Z,66.71
2022-09-06T06:16:13.515Z,66.64
2022-09-06T06:18:40.975Z,66.85
2022-09-06T06:21:20.318Z,66.42
2022-09-06T06:23:50.485Z,66.87
2022-09-06T06:26:17.835Z,66.93
2022-09-06T06:28:44.879Z,67.02
2022-09-06T06:31:12.305Z,67.43
2022-09-06T06:33:39.941Z,66.93
2022-09-06T06:36:15.775Z,66.97
2022-09-06T06:38:44.185Z,67.04
2022-09-06T06:41:13.992Z,67.18
2022-09-06T06:43:41.075Z,67.43
2022-09-06T06:46:12.478Z,66.90
2022-09-06T06:48:40.646Z,66.36
2022-09-06T06:51:08.680Z,66.28
2022-09-06T06:53:35.877Z,66.71
2022-09-06T06:56:17.481Z,66.35
2022-09-06T06:58:45.336Z,66.59
2022-09-06T07:01:12.691Z,67.04
2022-09-06T07:03:39.773Z,66.19
2022-09-06T07:06:10.818Z,66.24
2022-09-06T07:08:38.204Z,66.19
2022-09-06T07:11:10.082Z,66.33
2022-09-06T07:13:37.190Z,66.13
2022-09-06T07:16:23.352Z,66.30
2022-09-06T07:18:52.504Z,65.80
2022-09-06T07:21:41.391Z,65.51
2022-09-06T07:24:09.428Z,65.20
2022-09-06T07:26:39.029Z,65.22
2022-09-06T07:29:07.513Z,65.04
2022-09-06T07:34:22.281Z,66.12
2022-09-06T07:36:55.672Z,65.86
2022-09-06T07:39:22.696Z,66.03
2022-09-06T07:41:49.825Z,66.03
2022-09-06T07:44:16.970Z,66.04
2022-09-06T07:46:44.220Z,65.34
2022-09-06T07:49:11.197Z,65.56
2022-09-06T07:51:38.127Z,65.56
2022-09-06T07:54:35.194Z,64.84
2022-09-06T07:56:52.206Z,64.47
2022-09-06T07:59:19.142Z,64.75
2022-09-06T08:01:47.511Z,65.11
2022-09-06T08:04:14.887Z,64.56
2022-09-06T08:09:31.401Z,64.19
2022-09-06T08:11:58.583Z,64.74
2022-09-06T08:14:25.459Z,64.72
2022-09-06T08:16:52.367Z,63.96
2022-09-06T08:19:19.243Z,63.76
2022-09-06T08:21:46.148Z,63.63
2022-09-06T08:24:13.318Z,63.38
2022-09-06T08:26:43.259Z,63.65
2022-09-06T08:29:11.539Z,63.54
2022-09-06T08:31:41.121Z,63.03
2022-09-06T08:34:08.680Z,62.82
2022-09-06T08:36:35.681Z,62.66
2022-09-06T08:39:04.806Z,62.36
2022-09-06T08:41:44.763Z,61.46
2022-09-06T08:47:21.893Z,60.85
2022-09-06T08:50:03.791Z,60.66
2022-09-06T08:53:06.552Z,60.97
2022-09-06T08:55:48.874Z,60.67
2022-09-06T08:58:20.109Z,60.51
2022-09-06T09:00:51.559Z,60.10
2022-09-06T09:03:24.945Z,59.94
2022-09-06T09:05:53.788Z,59.29
2022-09-06T09:08:31.140Z,59.31
2022-09-06T09:11:03.134Z,59.13
2022-09-06T09:13:55.491Z,59.08
2022-09-06T09:16:23.288Z,57.92
2022-09-06T09:19:00.239Z,57.17
2022-09-06T09:21:30.666Z,58.36
2022-09-06T09:24:03.793Z,58.68
2022-09-06T09:26:52.443Z,57.51
2022-09-06T09:29:23.978Z,57.14
2022-09-06T09:31:55.441Z,56.80
2022-09-06T09:34:39.693Z,55.75
2022-09-06T09:40:24.432Z,56.62
2022-09-06T09:42:52.566Z,55.73
2022-09-06T09:45:22.513Z,55.15
2022-09-06T09:47:49.480Z,55.89
2022-09-06T09:50:24.407Z,55.69
2022-09-06T09:52:51.294Z,55.61
2022-09-06T09:55:23.345Z,55.01
2022-09-06T09:57:50.881Z,54.93
2022-09-06T10:00:39.921Z,54.89
2022-09-06T10:03:18.932Z,55.15
2022-09-06T10:06:02.629Z,54.81
2022-09-06T10:08:32.915Z,54.74
2022-09-06T10:11:00.748Z,54.76
2022-09-06T10:13:29.613Z,54.04
2022-09-06T10:15:58.808Z,53.83
2022-09-06T10:18:40.603Z,53.62
2022-09-06T10:21:11.414Z,53.55
2022-09-06T10:26:58.981Z,53.03
2022-09-06T10:29:52.993Z,53.54
2022-09-06T10:32:32.652Z,53.57
2022-09-06T10:35:07.505Z,52.53
2022-09-06T10:37:48.723Z,52.02
2022-09-06T10:40:24.049Z,50.45
2022-09-06T10:42:53.782Z,51.05
2022-09-06T10:45:20.575Z,50.62
2022-09-06T10:47:56.691Z,50.94
2022-09-06T10:50:38.810Z,51.32
2022-09-06T10:53:12.337Z,50.19
2022-09-06T10:55:41.217Z,49.76
2022-09-06T11:00:46.590Z,49.75
2022-09-06T11:06:11.207Z,48.66
2022-09-06T11:09:23.701Z,48.40
2022-09-06T11:12:01.425Z,48.79
2022-09-06T11:14:29.002Z,48.32
2022-09-06T11:17:00.811Z,48.75
2022-09-06T11:19:32.278Z,48.66
2022-09-06T11:22:10.941Z,47.75
2022-09-06T11:25:24.680Z,47.69
2022-09-06T11:27:58.227Z,47.32
2022-09-06T11:30:26.578Z,47.94
2022-09-06T11:33:16.818Z,47.37
2022-09-06T11:35:44.986Z,46.73
2022-09-06T11:38:23.635Z,46.87
2022-09-06T11:41:13.609Z,46.62
2022-09-06T11:43:52.316Z,46.38
2022-09-06T11:46:34.558Z,45.63
2022-09-06T11:49:06.417Z,45.97
2022-09-06T11:51:36.849Z,44.92
2022-09-06T11:54:22.955Z,45.91
2022-09-06T11:56:57.228Z,45.78
2022-09-06T11:59:33.909Z,45.17
2022-09-06T12:02:00.673Z,44.69
2022-09-06T12:05:07.420Z,43.25
2022-09-06T12:07:36.212Z,43.62
2022-09-06T12:10:31.626Z,43.51
2022-09-06T12:12:58.746Z,44.24
2022-09-06T12:15:26.455Z,43.08
2022-09-06T12:17:53.481Z,43.07
2022-09-06T12:21:01.018Z,42.45
2022-09-06T12:23:37.043Z,42.62
2022-09-06T12:26:08.350Z,42.56
2022-09-06T12:28:51.996Z,40.87
2022-09-06T12:31:24.790Z,40.72
2022-09-06T12:33:52.405Z,40.27
2022-09-06T12:36:29.680Z,41.11
2022-09-06T12:39:21.231Z,39.95
2022-09-06T12:41:51.795Z,40.43
2022-09-06T12:44:22.122Z,39.77
2022-09-06T12:46:51.382Z,39.65
2022-09-06T12:49:21.678Z,39.15
2022-09-06T12:51:49.727Z,40.04
2022-09-06T12:54:22.793Z,39.15
2022-09-06T12:56:50.625Z,37.94
2022-09-06T12:59:20.162Z,39.22
2022-09-06T13:01:56.781Z,39.95
2022-09-06T13:04:41.729Z,39.02
2022-09-06T13:07:15.548Z,37.26
2022-09-06T13:09:44.732Z,37.83
2022-09-06T13:12:26.264Z,39.56
2022-09-06T13:14:55.400Z,39.54
2022-09-06T13:17:24.204Z,38.09
2022-09-06T13:19:53.338Z,37.41
2022-09-06T13:23:01.719Z,38.42
2022-09-06T13:25:28.613Z,38.19
2022-09-06T13:27:58.860Z,36.80
2022-09-06T13:30:49.063Z,37.59
2022-09-06T13:33:25.505Z,34.91
2022-09-06T13:36:10.568Z,34.79
2022-09-06T13:38:37.349Z,35.58
2022-09-06T13:41:12.616Z,34.41
2022-09-06T13:43:47.552Z,35.09
2022-09-06T13:46:14.532Z,35.65
2022-09-06T13:48:44.208Z,34.94
2022-09-06T13:51:11.724Z,35.91
2022-09-06T13:53:38.620Z,34.57
2022-09-06T13:56:10.877Z,35.17
2022-09-06T13:58:37.790Z,34.80
2022-09-06T14:01:08.722Z,34.62
2022-09-06T14:03:37.416Z,35.84
2022-09-06T14:06:04.536Z,34.46
2022-09-06T14:08:55.801Z,34.51
2022-09-06T14:11:19.413Z,33.33
2022-09-06T14:13:46.347Z,34.70
2022-09-06T14:16:13.456Z,35.13
2022-09-06T14:18:40.390Z,33.36
2022-09-06T14:21:07.704Z,33.48
2022-09-06T14:23:34.607Z,33.13
2022-09-06T14:26:03.563Z,33.00
2022-09-06T14:28:34.071Z,31.01
2022-09-06T14:31:12.500Z,33.44
2022-09-06T14:33:39.588Z,33.00
2022-09-06T14:36:12.285Z,32.70
2022-09-06T14:38:40.476Z,32.10
2022-09-06T14:41:08.546Z,34.08
2022-09-06T14:43:36.274Z,33.65
2022-09-06T14:46:05.393Z,33.36
2022-09-06T14:48:32.534Z,32.39
2022-09-06T14:51:06.347Z,31.47
2022-09-06T14:53:40.389Z,31.79
2022-09-06T14:56:09.048Z,33.16
2022-09-06T14:58:37.925Z,33.16
2022-09-06T15:01:14.866Z,33.25
2022-09-06T15:03:44.086Z,33.29
2022-09-06T15:06:10.987Z,33.28
2022-09-06T15:08:38.326Z,33.35
2022-09-06T15:11:07.885Z,33.33
2022-09-06T15:13:40.326Z,33.63
2022-09-06T15:16:09.325Z,34.18
2022-09-06T15:18:36.494Z,34.05
2022-09-06T15:21:14.380Z,34.32
2022-09-06T15:23:42.935Z,33.93
2022-09-06T15:26:11.978Z,33.88
2022-09-06T15:28:40.228Z,34.57
2022-09-06T15:31:08.302Z,34.67
2022-09-06T15:33:37.110Z,34.52
2022-09-06T15:36:07.847Z,34.78
2022-09-06T15:38:48.076Z,35.11
2022-09-06T15:41:20.841Z,35.36
2022-09-06T15:43:50.562Z,35.98
2022-09-06T15:46:22.565Z,35.87
2022-09-06T15:48:53.453Z,36.04
2022-09-06T15:51:21.269Z,36.46
2022-09-06T15:53:48.246Z,36.07
2022-09-06T15:56:16.937Z,36.79
2022-09-06T15:58:47.662Z,37.37
2022-09-06T16:01:22.769Z,37.03
2022-09-06T16:03:54.448Z,37.23
2022-09-06T16:06:27.417Z,37.45
2022-09-06T16:09:00.356Z,37.36
2022-09-06T16:11:28.845Z,37.56
2022-09-06T16:13:56.432Z,37.45
2022-09-06T16:16:23.754Z,37.30
2022-09-06T16:18:52.184Z,37.06
2022-09-06T16:21:24.522Z,37.30
2022-09-06T16:23:53.984Z,37.05
2022-09-06T16:26:22.737Z,37.15
2022-09-06T16:28:51.247Z,37.00
2022-09-06T16:31:19.065Z,37.25
2022-09-06T16:33:47.425Z,37.14
2022-09-06T16:36:14.955Z,37.58
2022-09-06T16:38:41.897Z,37.55
2022-09-06T16:41:26.430Z,37.92
2022-09-06T16:43:53.644Z,37.78
2022-09-06T16:46:22.450Z,38.00
2022-09-06T16:48:53.780Z,37.68
2022-09-06T16:51:22.222Z,38.15
2022-09-06T16:53:49.627Z,38.01
2022-09-06T16:56:19.061Z,38.41
2022-09-06T16:58:58.556Z,38.33
2022-09-06T17:01:27.021Z,38.31
2022-09-06T17:03:54.059Z,38.44
2022-09-06T17:06:21.851Z,38.27
2022-09-06T17:08:48.922Z,38.41
2022-09-06T17:11:18.364Z,38.58
2022-09-06T17:13:47.214Z,38.41
2022-09-06T17:16:33.583Z,38.19
2022-09-06T17:19:03.318Z,38.59
2022-09-06T17:21:30.982Z,38.44
2022-09-06T17:24:02.961Z,38.74
2022-09-06T17:26:30.796Z,38.72
2022-09-06T17:28:58.098Z,38.96
2022-09-06T17:31:26.072Z,39.38
2022-09-06T17:33:53.382Z,39.24
2022-09-06T17:36:28.923Z,39.77
2022-09-06T17:39:07.568Z,39.68
2022-09-06T17:41:46.143Z,39.44
2022-09-06T17:44:15.588Z,40.04
2022-09-06T17:46:57.113Z,40.00
2022-09-06T17:49:30.601Z,39.87
2022-09-06T17:51:58.364Z,39.85
2022-09-06T17:54:25.493Z,39.96
2022-09-06T17:56:52.458Z,40.13
2022-09-06T17:59:19.755Z,40.26
2022-09-06T18:01:46.779Z,40.62
2022-09-06T18:04:14.451Z,40.37
2022-09-06T18:06:43.073Z,40.88
2022-09-06T18:09:15.780Z,40.87
2022-09-06T18:11:45.862Z,41.11
2022-09-06T18:14:18.131Z,40.91
2022-09-06T18:16:47.061Z,41.36
2022-09-06T18:19:15.259Z,41.34
2022-09-06T18:21:42.454Z,41.28
2022-09-06T18:24:10.222Z,41.34
2022-09-06T18:26:37.409Z,41.93
2022-09-06T18:29:08.311Z,41.51
2022-09-06T18:31:35.531Z,42.72
2022-09-06T18:34:02.620Z,42.21
2022-09-06T18:36:32.437Z,42.92
2022-09-06T18:39:04.721Z,43.77
2022-09-06T18:41:51.710Z,43.48
2022-09-06T18:44:19.035Z,43.32
2022-09-06T18:46:46.180Z,43.02
2022-09-06T18:49:14.993Z,43.14
2022-09-06T18:51:42.295Z,43.28
2022-09-06T18:54:10.791Z,43.22
2022-09-06T18:56:38.011Z,43.46
2022-09-06T18:59:05.674Z,43.58
2022-09-06T19:01:34.750Z,43.92
2022-09-06T19:04:02.736Z,43.93
2022-09-06T19:06:30.872Z,44.35
2022-09-06T19:08:59.291Z,44.56
2022-09-06T19:11:26.189Z,45.13
2022-09-06T19:13:54.486Z,44.48
2022-09-06T19:16:23.308Z,44.77
2022-09-06T19:18:55.943Z,45.40
2022-09-06T19:21:25.285Z,45.34
2022-09-06T19:24:03.689Z,45.49
2022-09-06T19:26:33.721Z,45.79
2022-09-06T19:29:03.276Z,46.35
2022-09-06T19:31:33.362Z,45.92
2022-09-06T19:34:00.459Z,45.87
2022-09-06T19:36:28.884Z,46.37
2022-09-06T19:39:05.753Z,46.20
2022-09-06T19:41:38.241Z,46.17
2022-09-06T19:44:08.330Z,45.63
2022-09-06T19:46:35.551Z,45.72
2022-09-06T19:49:04.867Z,45.75
2022-09-06T19:51:33.002Z,45.41
2022-09-06T19:54:00.398Z,45.74
2022-09-06T19:56:32.577Z,46.30
2022-09-06T19:59:01.433Z,46.40
2022-09-06T20:01:32.334Z,46.90
2022-09-06T20:04:00.571Z,46.41
2022-09-06T20:06:27.507Z,45.66
2022-09-06T20:08:57.254Z,45.44
2022-09-06T20:11:29.170Z,45.42
2022-09-06T20:13:56.659Z,45.30
2022-09-06T20:16:27.698Z,45.39
2022-09-06T20:18:55.226Z,45.36
2022-09-06T20:21:22.505Z,45.42
2022-09-06T20:23:57.513Z,45.68
2022-09-06T20:26:27.283Z,45.61
2022-09-06T20:28:58.848Z,45.69
2022-09-06T20:31:29.565Z,45.79
2022-09-06T20:33:59.032Z,45.99
2022-09-06T20:36:26.039Z,45.88
2022-09-06T20:38:53.248Z,45.70
2022-09-06T20:41:22.707Z,45.99
2022-09-06T20:43:57.058Z,46.45
2022-09-06T20:46:28.966Z,46.28
2022-09-06T20:48:57.982Z,46.43
2022-09-06T20:51:25.370Z,46.20
2022-09-06T20:53:54.207Z,46.42
2022-09-06T20:56:26.191Z,46.38
2022-09-06T20:58:55.352Z,46.25
2022-09-06T21:01:26.595Z,46.44
2022-09-06T21:03:56.459Z,46.09
2022-09-06T21:06:24.825Z,47.27
2022-09-06T21:08:53.300Z,47.45
2022-09-06T21:11:20.419Z,48.57
2022-09-06T21:13:52.233Z,48.72
2022-09-06T21:16:24.299Z,48.41
2022-09-06T21:18:53.178Z,48.66
2022-09-06T21:21:20.441Z,48.75
2022-09-06T21:23:47.369Z,49.35
2022-09-06T21:26:17.547Z,49.22
2022-09-06T21:28:47.879Z,49.83
2022-09-06T21:31:22.827Z,48.92
2022-09-06T21:33:55.199Z,48.82
2022-09-06T21:36:23.768Z,48.85
2022-09-06T21:38:53.592Z,49.04
2022-09-06T21:41:20.770Z,49.31
2022-09-06T21:43:56.894Z,49.36
2022-09-06T21:46:30.321Z,49.15
2022-09-06T21:49:01.560Z,49.42
2022-09-06T21:51:28.430Z,49.21
2022-09-06T21:53:56.946Z,49.59
2022-09-06T21:56:24.499Z,49.90
2022-09-06T21:58:56.152Z,49.74
2022-09-06T22:01:29.090Z,49.62
2022-09-06T22:04:02.983Z,49.71
2022-09-06T22:06:34.179Z,49.62
2022-09-06T22:09:13.648Z,49.82
2022-09-06T22:11:42.997Z,50.68
2022-09-06T22:14:12.071Z,50.37
2022-09-06T22:16:40.006Z,50.56
2022-09-06T22:19:12.886Z,50.70
2022-09-06T22:21:40.189Z,51.07
2022-09-06T22:24:09.898Z,51.52
2022-09-06T22:26:38.250Z,51.49
2022-09-06T22:29:07.600Z,51.58
2022-09-06T22:31:35.086Z,52.49
2022-09-06T22:34:02.611Z,52.28
2022-09-06T22:36:29.527Z,52.24
2022-09-06T22:38:57.469Z,52.53
2022-09-06T22:41:26.973Z,53.09
2022-09-06T22:43:53.910Z,53.55
2022-09-06T22:46:20.964Z,53.60
2022-09-06T22:48:47.984Z,53.85
2022-09-06T22:51:15.025Z,54.24
2022-09-06T22:53:41.903Z,53.74
2022-09-06T22:56:08.985Z,54.39
2022-09-06T22:58:35.924Z,54.28
2022-09-06T23:01:13.602Z,54.73
2022-09-06T23:03:41.628Z,54.80
2022-09-06T23:06:08.948Z,54.57
2022-09-06T23:08:37.374Z,55.18
2022-09-06T23:11:16.318Z,55.20
2022-09-06T23:13:43.764Z,55.84
2022-09-06T23:16:19.059Z,55.39
2022-09-06T23:18:46.760Z,55.60
2022-09-06T23:21:19.563Z,55.72
2022-09-06T23:23:47.607Z,55.78
2022-09-06T23:26:17.411Z,55.65
2022-09-06T23:28:44.798Z,55.84
2022-09-06T23:31:13.920Z,55.87
2022-09-06T23:33:41.715Z,56.36
2022-09-06T23:36:11.186Z,56.14
2022-09-06T23:38:40.146Z,56.05
2022-09-06T23:41:08.619Z,56.13
2022-09-06T23:43:35.530Z,55.77
2022-09-06T23:46:02.683Z,55.92
2022-09-06T23:48:29.820Z,56.24
2022-09-06T23:50:56.944Z,56.58
2022-09-06T23:53:23.959Z,56.42
2022-09-06T23:55:50.841Z,56.38
2022-09-06T23:58:17.728Z,56.91
